Time;durP1;ratioP1;P1;durP2;ratioP2;P2;SDS_P1;SDS_P2;PMS_P1;PMS_P2;Temp;Humidity;BMP_temperature;BMP_pressure;BME280_temperature;BME280_humidity;BME280_pressure;Samples;Min_cycle;Max_cycle;Signal;HPM_P1;HPM_P2
2022/09/19 00:00:28;;;;;;;12.65;1.98;;;;;;;-143.48;74.41;79170.44;5075596;28;20078;-45
2022/09/19 00:02:54;;;;;;;11.30;2.10;;;;;;;-143.48;75.19;79170.44;5075171;28;20035;-44
2022/09/19 00:05:19;;;;;;;13.23;2.00;;;;;;;-143.48;74.14;79160.50;5075149;28;20032;-49
2022/09/19 00:07:47;;;;;;;15.45;2.25;;;;;;;-143.48;74.51;79166.47;5075357;28;20025;-44
2022/09/19 00:10:13;;;;;;;15.45;2.35;;;;;;;-143.48;74.74;79164.47;5075121;28;20029;-43
2022/09/19 00:12:38;;;;;;;14.77;2.40;;;;;;;-143.48;74.35;79174.41;5057044;28;20032;-43
2022/09/19 00:15:04;;;;;;;15.18;1.95;;;;;;;-143.48;75.02;79162.50;5075337;28;20111;-43
2022/09/19 00:17:29;;;;;;;8.82;1.70;;;;;;;-143.48;75.62;79156.53;5075351;28;20024;-45
2022/09/19 00:19:54;;;;;;;9.45;1.48;;;;;;;-143.48;76.33;79170.44;5075410;28;20042;-45
2022/09/19 00:22:20;;;;;;;8.60;1.45;;;;;;;-143.48;75.31;79158.53;5074970;28;20383;-45
2022/09/19 00:24:45;;;;;;;12.55;1.90;;;;;;;-143.48;75.59;79162.50;5075455;28;20126;-45
2022/09/19 00:27:13;;;;;;;14.60;1.80;;;;;;;-143.48;74.79;79148.63;5075106;28;20025;-45
2022/09/19 00:29:41;;;;;;;13.98;2.08;;;;;;;-143.48;73.98;79150.59;5056801;28;20486;-45
2022/09/19 00:32:11;;;;;;;13.02;1.92;;;;;;;-143.48;73.87;79172.41;5057609;28;20044;-43
2022/09/19 00:34:37;;;;;;;13.07;2.17;;;;;;;-143.48;73.80;79164.47;5057557;28;20020;-45
2022/09/19 00:37:03;;;;;;;9.25;1.60;;;;;;;-143.48;72.84;79156.53;5074864;28;20436;-45
2022/09/19 00:39:29;;;;;;;12.52;1.92;;;;;;;-143.48;72.83;79150.59;5075103;28;20111;-43
2022/09/19 00:41:55;;;;;;;10.65;1.63;;;;;;;-143.48;73.32;79160.50;5074759;28;20028;-42
2022/09/19 00:44:23;;;;;;;13.73;1.70;;;;;;;-143.48;74.77;79164.47;5074791;28;20519;-45
2022/09/19 00:47:10;;;;;;;18.33;2.20;;;;;;;-143.48;74.88;79174.41;5074768;28;20032;-44
2022/09/19 00:49:41;;;;;;;11.77;1.67;;;;;;;-143.48;75.32;79196.22;5074285;28;20021;-44
2022/09/19 00:52:13;;;;;;;13.75;2.00;;;;;;;-143.48;74.59;79198.19;5074274;28;20433;-44
2022/09/19 00:54:41;;;;;;;14.88;2.55;;;;;;;-143.48;74.21;79188.28;5074326;28;20032;-44
2022/09/19 00:57:10;;;;;;;8.70;1.52;;;;;;;-143.48;74.30;79198.19;5074484;28;20371;-44
2022/09/19 00:59:40;;;;;;;9.98;1.83;;;;;;;-143.48;74.26;79204.16;5074134;28;20035;-44
2022/09/19 01:02:08;;;;;;;13.10;2.08;;;;;;;-143.48;75.39;79225.97;5074348;28;20016;-45
2022/09/19 01:04:36;;;;;;;16.33;2.35;;;;;;;-143.48;74.80;79218.03;5073994;28;20032;-43
2022/09/19 01:07:20;;;;;;;14.73;2.53;;;;;;;-143.48;74.51;79239.84;5074004;28;20421;-43
2022/09/19 01:09:54;;;;;;;10.27;1.70;;;;;;;-143.48;74.57;79235.88;5056136;28;20378;-44
2022/09/19 01:12:37;;;;;;;14.77;2.00;;;;;;;-143.48;74.46;79239.84;5073902;28;20131;-44
2022/09/19 01:15:51;;;;;;;11.25;1.80;;;;;;;-143.48;75.47;79259.69;5073890;28;20048;-44
2022/09/19 01:18:22;;;;;;;13.27;1.80;;;;;;;-143.48;75.37;79257.72;4957138;28;20429;-44
2022/09/19 01:21:37;;;;;;;17.00;1.95;;;;;;;-143.48;74.06;79249.78;4956934;28;20030;-44
2022/09/19 01:24:00;;;;;;;15.18;1.70;;;;;;;-143.48;73.80;79261.69;5054823;28;20503;-45
2022/09/19 01:26:31;;;;;;;24.23;2.65;;;;;;;-143.48;73.68;79259.69;5073732;28;20021;-44
2022/09/19 01:29:06;;;;;;;20.38;2.22;;;;;;;-143.48;73.21;79253.75;5073999;28;20032;-45
2022/09/19 01:31:36;;;;;;;9.68;1.75;;;;;;;-143.48;74.92;79281.50;5073904;28;20024;-44
2022/09/19 01:34:17;;;;;;;11.75;1.85;;;;;;;-143.48;75.59;79265.66;5073682;28;20033;-43
2022/09/19 01:36:52;;;;;;;10.45;2.05;;;;;;;-143.48;76.27;79285.47;5073737;28;20058;-43
2022/09/19 01:39:23;;;;;;;14.65;2.20;;;;;;;-143.48;76.80;79287.47;5073836;28;20113;-45
2022/09/19 01:41:53;;;;;;;14.25;1.77;;;;;;;-143.48;77.56;79283.50;5073581;28;20020;-45
2022/09/19 01:44:22;;;;;;;11.45;1.88;;;;;;;-143.48;77.33;79279.53;5073513;28;20020;-44
2022/09/19 01:46:56;;;;;;;10.07;1.70;;;;;;;-143.48;77.46;79293.41;5073487;28;20048;-45
2022/09/19 01:49:31;;;;;;;9.23;1.70;;;;;;;-143.48;77.36;79291.44;5073697;28;20032;-44
2022/09/19 01:52:16;;;;;;;14.00;2.00;;;;;;;-143.48;77.20;79289.44;5073689;28;20029;-43
2022/09/19 01:54:47;;;;;;;10.43;1.80;;;;;;;-143.48;77.45;79289.44;5055485;28;20028;-44
2022/09/19 01:57:17;;;;;;;11.05;1.60;;;;;;;-143.48;77.43;79299.38;5073586;28;20463;-43
2022/09/19 02:00:10;;;;;;;10.88;1.95;;;;;;;-143.48;76.87;79315.25;5073845;28;20028;-45
2022/09/19 02:02:40;;;;;;;9.50;1.77;;;;;;;-143.48;77.04;79327.13;5055351;28;20028;-45
2022/09/19 02:05:35;;;;;;;13.90;2.22;;;;;;;-143.48;77.28;79346.97;5073584;28;20021;-43
2022/09/19 02:08:03;;;;;;;12.68;1.92;;;;;;;-143.48;78.11;79331.09;5065027;28;20037;-44
2022/09/19 02:10:46;;;;;;;10.07;1.58;;;;;;;-143.48;78.25;79335.06;5073549;28;20069;-44
2022/09/19 02:13:13;;;;;;;16.13;2.75;;;;;;;-143.48;78.63;79333.09;5073233;28;20056;-43
2022/09/19 02:15:46;;;;;;;15.23;1.85;;;;;;;-143.48;78.70;79327.13;5073242;28;20031;-44
2022/09/19 02:18:20;;;;;;;16.17;1.80;;;;;;;-143.48;77.77;79305.31;5075584;28;20032;-45
2022/09/19 02:20:46;;;;;;;14.57;2.03;;;;;;;-143.48;77.17;79305.31;5077428;28;20056;-45
2022/09/19 02:23:18;;;;;;;13.43;2.08;;;;;;;-143.48;77.43;79305.31;5077153;28;20066;-43
2022/09/19 02:25:46;;;;;;;12.33;1.93;;;;;;;-143.48;77.70;79293.41;5077236;28;20032;-45
2022/09/19 02:28:18;;;;;;;11.68;2.10;;;;;;;-143.48;76.81;79287.47;5077177;28;20025;-42
2022/09/19 02:30:44;;;;;;;11.15;1.83;;;;;;;-143.48;76.91;79281.50;5077343;28;20024;-44
2022/09/19 02:33:11;;;;;;;13.40;2.25;;;;;;;-143.48;76.32;79265.66;5077034;28;20374;-44
2022/09/19 02:35:55;;;;;;;7.35;1.60;;;;;;;-143.48;76.01;79261.69;5077170;28;20024;-47
2022/09/19 02:38:37;;;;;;;9.25;1.63;;;;;;;-143.48;76.43;79269.63;5059026;28;20051;-44
2022/09/19 02:41:21;;;;;;;18.67;2.33;;;;;;;-143.48;76.50;79263.66;5077124;28;20025;-42
2022/09/19 02:44:19;;;;;;;10.02;1.90;;;;;;;-143.48;77.15;79257.72;5076783;28;20471;-42
2022/09/19 02:46:44;;;;;;;10.90;1.90;;;;;;;-143.48;76.78;79253.75;5058817;28;20032;-42
2022/09/19 02:49:19;;;;;;;10.88;2.03;;;;;;;-143.48;77.72;79259.69;5077245;28;20463;-44
2022/09/19 02:51:51;;;;;;;13.55;2.08;;;;;;;-143.48;78.09;79279.53;5077191;28;20024;-44
2022/09/19 02:54:21;;;;;;;10.25;1.45;;;;;;;-143.48;78.13;79285.47;5076625;28;20066;-44
2022/09/19 02:56:49;;;;;;;9.85;1.65;;;;;;;-143.48;77.91;79291.44;5076914;28;20487;-43
2022/09/19 02:59:21;;;;;;;8.00;1.55;;;;;;;-143.48;78.33;79295.41;5076383;28;20025;-43
2022/09/19 03:01:50;;;;;;;14.95;1.92;;;;;;;-143.48;78.26;79305.31;5076496;28;20020;-43
2022/09/19 03:04:23;;;;;;;11.10;1.75;;;;;;;-143.48;78.51;79295.41;5076883;28;20111;-43
2022/09/19 03:07:00;;;;;;;16.35;2.50;;;;;;;-143.48;78.35;79283.50;5076654;28;20035;-45
2022/09/19 03:09:29;;;;;;;19.38;1.90;;;;;;;-143.48;77.67;79257.72;5076247;28;20024;-43
2022/09/19 03:12:02;;;;;;;18.52;2.08;;;;;;;-143.48;77.22;79241.84;5076877;28;20137;-43
2022/09/19 03:14:30;;;;;;;11.35;2.92;;;;;;;-143.48;76.30;79237.88;5075127;28;20359;-43
2022/09/19 03:16:58;;;;;;;10.43;2.03;;;;;;;-143.48;76.51;79241.84;5074984;28;20080;-43
2022/09/19 03:19:26;;;;;;;14.80;1.75;;;;;;;-143.48;76.27;79235.88;5074892;28;20027;-46
2022/09/19 03:21:53;;;;;;;14.38;2.05;;;;;;;-143.48;76.01;79237.88;5075496;28;20401;-45
2022/09/19 03:24:18;;;;;;;13.38;1.80;;;;;;;-143.48;75.96;79237.88;5074957;28;20028;-42
2022/09/19 03:26:44;;;;;;;9.20;1.90;;;;;;;-143.48;76.36;79245.81;5074863;28;20024;-42
2022/09/19 03:29:11;;;;;;;17.02;2.10;;;;;;;-143.48;76.40;79237.88;5074445;28;20055;-43
2022/09/19 03:31:36;;;;;;;13.13;1.88;;;;;;;-143.48;76.64;79224.00;5074707;28;20149;-42
2022/09/19 03:34:02;;;;;;;16.67;1.70;;;;;;;-143.48;76.59;79224.00;5075572;28;20038;-43
2022/09/19 03:36:33;;;;;;;11.80;1.70;;;;;;;-143.48;76.19;79222.00;5074902;28;20380;-44
2022/09/19 03:39:01;;;;;;;11.15;2.00;;;;;;;-143.48;76.54;79216.06;5074611;28;20025;-44
2022/09/19 03:41:27;;;;;;;15.80;1.77;;;;;;;-143.48;77.51;79208.13;5074842;28;20529;-44
2022/09/19 03:43:53;;;;;;;10.50;1.95;;;;;;;-143.48;77.67;79214.06;5074864;28;20067;-44
2022/09/19 03:46:19;;;;;;;12.63;1.85;;;;;;;-143.48;77.47;79222.00;5074552;28;20047;-44
2022/09/19 03:48:46;;;;;;;9.15;1.90;;;;;;;-143.48;77.12;79233.91;5074503;28;20032;-43
2022/09/19 03:51:13;;;;;;;11.38;1.73;;;;;;;-143.48;77.50;79241.84;5056748;28;20074;-43
2022/09/19 03:53:38;;;;;;;13.10;1.80;;;;;;;-143.48;77.96;79259.69;5074519;28;20035;-45
2022/09/19 03:56:04;;;;;;;14.38;1.67;;;;;;;-143.48;78.11;79275.56;5074669;28;20051;-44
2022/09/19 03:58:30;;;;;;;10.32;1.52;;;;;;;-143.48;78.59;79291.44;5075158;28;20036;-44
2022/09/19 04:00:56;;;;;;;7.22;1.33;;;;;;;-143.48;78.71;79297.38;5074259;28;20032;-45
2022/09/19 04:03:23;;;;;;;15.32;2.03;;;;;;;-143.48;78.49;79295.41;5074797;28;20024;-43
2022/09/19 04:05:51;;;;;;;10.10;1.70;;;;;;;-143.48;78.76;79301.34;5074522;28;20020;-44
2022/09/19 04:08:16;;;;;;;8.93;1.60;;;;;;;-143.48;78.87;79293.41;5074212;28;20036;-43
2022/09/19 04:10:42;;;;;;;6.53;1.40;;;;;;;-143.48;78.88;79295.41;5074149;28;20066;-44
2022/09/19 04:13:08;;;;;;;18.48;2.40;;;;;;;-143.48;78.73;79291.44;5037557;28;1052887;-44
2022/09/19 04:15:33;;;;;;;10.50;1.80;;;;;;;-143.48;78.54;79295.41;5074986;28;20024;-43
2022/09/19 04:17:58;;;;;;;8.20;1.50;;;;;;;-143.48;78.48;79305.31;5075378;28;20024;-45
2022/09/19 04:20:27;;;;;;;9.88;1.58;;;;;;;-143.48;78.78;79317.22;5074942;28;20487;-43
2022/09/19 04:22:52;;;;;;;11.43;1.80;;;;;;;-143.48;79.48;79309.28;5057024;28;20032;-44
2022/09/19 04:25:17;;;;;;;8.98;1.33;;;;;;;-143.48;79.16;79315.25;5075460;28;20664;-44
2022/09/19 04:27:45;;;;;;;17.33;2.40;;;;;;;-143.48;78.81;79297.38;5074948;28;20466;-45
2022/09/19 04:30:10;;;;;;;9.77;1.50;;;;;;;-143.48;78.91;79303.34;5075062;28;20020;-44
2022/09/19 04:32:39;;;;;;;10.38;1.70;;;;;;;-143.48;78.85;79285.47;5056794;28;20023;-45
2022/09/19 04:35:05;;;;;;;12.93;2.13;;;;;;;-143.48;78.74;79275.56;5074992;28;20095;-45
2022/09/19 04:37:30;;;;;;;9.15;1.55;;;;;;;-143.48;78.65;79275.56;5074833;28;20099;-44
2022/09/19 04:39:56;;;;;;;9.85;1.58;;;;;;;-143.48;78.05;79279.53;5074266;28;20032;-43
2022/09/19 04:42:21;;;;;;;13.48;1.80;;;;;;;-143.48;78.46;79283.50;5074782;28;20532;-45
2022/09/19 04:44:46;;;;;;;10.00;1.50;;;;;;;-143.48;78.59;79285.47;5074449;28;20028;-46
2022/09/19 04:47:12;;;;;;;10.45;1.90;;;;;;;-143.48;78.82;79295.41;5074706;28;20020;-42
2022/09/19 04:49:41;;;;;;;13.93;1.85;;;;;;;-143.48;78.63;79303.34;5074339;28;20025;-42
2022/09/19 04:52:09;;;;;;;8.73;1.60;;;;;;;-143.48;78.90;79303.34;5074603;28;20052;-43
2022/09/19 04:54:37;;;;;;;9.18;1.77;;;;;;;-143.48;78.51;79313.25;5074745;28;20070;-45
2022/09/19 04:57:05;;;;;;;8.85;1.95;;;;;;;-143.48;78.86;79313.25;5074452;28;20107;-44
2022/09/19 04:59:30;;;;;;;9.90;1.58;;;;;;;-143.48;78.61;79311.28;5074017;28;20108;-44
2022/09/19 05:01:58;;;;;;;15.90;1.70;;;;;;;-143.48;79.11;79305.31;5074417;28;20103;-44
2022/09/19 05:04:24;;;;;;;9.15;1.60;;;;;;;-143.48;78.12;79291.44;5074312;28;20482;-44
2022/09/19 05:06:51;;;;;;;10.30;1.80;;;;;;;-143.48;77.91;79285.47;5073968;28;20028;-43
2022/09/19 05:09:16;;;;;;;11.65;1.63;;;;;;;-143.48;77.61;79291.44;5074229;28;20040;-45
2022/09/19 05:11:46;;;;;;;11.52;1.75;;;;;;;-143.48;77.50;79293.41;5073966;28;20062;-44
2022/09/19 05:14:13;;;;;;;11.73;2.17;;;;;;;-143.48;77.64;79285.47;5073746;28;20075;-45
2022/09/19 05:16:39;;;;;;;16.08;2.38;;;;;;;-143.48;77.14;79289.44;5074364;28;20032;-44
2022/09/19 05:19:04;;;;;;;9.55;1.75;;;;;;;-143.48;77.71;79297.38;5074082;28;20115;-43
2022/09/19 05:21:30;;;;;;;12.68;1.75;;;;;;;-143.48;77.99;79293.41;5073751;28;20480;-45
2022/09/19 05:23:55;;;;;;;14.30;1.63;;;;;;;-143.48;77.79;79289.44;5074053;28;20016;-44
2022/09/19 05:26:20;;;;;;;18.02;2.10;;;;;;;-143.48;76.89;79281.50;5073746;28;20163;-44
2022/09/19 05:28:46;;;;;;;24.70;1.95;;;;;;;-143.48;76.61;79277.53;5073688;28;20048;-43
2022/09/19 05:31:12;;;;;;;14.45;2.05;;;;;;;-143.48;76.41;79267.63;5073600;28;20077;-44
2022/09/19 05:33:38;;;;;;;10.98;1.70;;;;;;;-143.48;75.95;79269.63;5073955;28;20025;-45
2022/09/19 05:36:04;;;;;;;10.43;1.80;;;;;;;-143.48;75.86;79259.69;5073495;28;20047;-43
2022/09/19 05:38:31;;;;;;;12.80;1.70;;;;;;;-143.48;76.35;79261.69;5073492;28;20395;-45
2022/09/19 05:41:01;;;;;;;9.30;1.55;;;;;;;-143.48;76.47;79257.72;5073694;28;20028;-45
2022/09/19 05:43:27;;;;;;;12.20;1.95;;;;;;;-143.48;75.99;79251.75;5073801;28;20044;-43
2022/09/19 05:45:54;;;;;;;11.50;2.10;;;;;;;-143.48;76.06;79227.97;5073446;28;20090;-44
2022/09/19 05:48:20;;;;;;;11.65;1.95;;;;;;;-143.48;75.54;79218.03;5073363;28;20024;-43
2022/09/19 05:50:47;;;;;;;8.70;1.70;;;;;;;-143.48;75.05;79208.13;5055393;28;20107;-45
2022/09/19 05:55:58;;;;;;;9.32;1.73;;;;;;;-143.48;74.96;79166.47;5074172;28;20376;-44
2022/09/19 05:58:24;;;;;;;14.70;1.80;;;;;;;-143.48;74.33;79142.66;5073308;28;20024;-45
2022/09/19 06:00:50;;;;;;;13.52;1.63;;;;;;;-143.48;74.25;79140.69;5073463;28;20032;-45
2022/09/19 06:03:16;;;;;;;14.85;1.73;;;;;;;-143.48;74.07;79132.75;5073268;28;20020;-45
2022/09/19 06:05:45;;;;;;;6.50;1.38;;;;;;;-143.48;73.12;79114.88;5055427;28;20447;-45
2022/09/19 06:08:11;;;;;;;13.25;2.25;;;;;;;-143.48;72.65;79085.13;5073371;28;20031;-46
2022/09/19 06:10:39;;;;;;;10.75;1.80;;;;;;;-143.48;72.77;79073.25;5073196;28;20027;-45
2022/09/19 06:13:17;;;;;;;9.00;1.73;;;;;;;-143.48;72.29;79079.19;5055344;28;20203;-44
2022/09/19 06:15:42;;;;;;;9.30;1.77;;;;;;;-143.48;72.76;79103.00;5073329;28;20096;-45
2022/09/19 06:18:09;;;;;;;11.57;1.67;;;;;;;-143.48;72.50;79093.06;5073407;28;20025;-43
2022/09/19 06:20:35;;;;;;;12.32;2.00;;;;;;;-143.48;72.77;79101.00;5073006;28;20047;-45
2022/09/19 06:23:03;;;;;;;10.52;1.80;;;;;;;-143.48;72.27;79075.22;5072792;28;20020;-45
2022/09/19 06:25:29;;;;;;;9.52;1.50;;;;;;;-143.48;71.31;79045.47;5073952;28;20032;-44
2022/09/19 06:27:56;;;;;;;9.43;1.60;;;;;;;-143.48;71.13;79027.63;5072837;28;20111;-44
2022/09/19 06:30:22;;;;;;;12.02;1.75;;;;;;;-143.48;70.45;79003.81;5072996;28;20021;-44
2022/09/19 06:32:49;;;;;;;15.95;1.70;;;;;;;-143.48;70.60;79031.59;5073047;28;20379;-45
2022/09/19 06:35:14;;;;;;;10.85;1.63;;;;;;;-143.48;70.37;78993.91;5072678;28;20027;-45
2022/09/19 06:37:39;;;;;;;10.88;1.65;;;;;;;-143.48;69.61;78995.88;5073454;28;20112;-43
2022/09/19 06:40:05;;;;;;;11.45;1.73;;;;;;;-143.48;68.96;78991.91;5072958;28;20465;-44
2022/09/19 06:42:30;;;;;;;8.65;1.50;;;;;;;-143.48;69.07;79021.66;5072868;28;20077;-43
2022/09/19 06:44:56;;;;;;;10.38;1.90;;;;;;;-143.48;68.55;79013.72;5055077;28;20025;-44
2022/09/19 06:47:21;;;;;;;11.30;1.90;;;;;;;-143.48;69.12;79021.66;5054563;28;20051;-43
2022/09/19 06:49:46;;;;;;;11.95;1.85;;;;;;;-143.48;67.93;78987.94;5073125;28;20031;-42
2022/09/19 06:52:12;;;;;;;10.10;1.70;;;;;;;-143.48;68.80;78987.94;5073148;28;20105;-43
2022/09/19 06:54:37;;;;;;;12.30;1.55;;;;;;;-143.48;67.57;79007.78;5072948;28;20021;-43
2022/09/19 06:57:03;;;;;;;8.88;1.60;;;;;;;-143.48;67.89;79003.81;5072820;28;20021;-44
2022/09/19 06:59:28;;;;;;;9.85;1.48;;;;;;;-143.48;67.26;79005.78;5073064;28;20031;-42
2022/09/19 07:01:53;;;;;;;9.23;1.77;;;;;;;-143.48;67.31;79013.72;5073191;28;20029;-43
2022/09/19 07:04:20;;;;;;;5.97;1.67;;;;;;;-143.48;66.65;79021.66;5074740;28;20171;-43
2022/09/19 07:06:45;;;;;;;10.27;1.40;;;;;;;-143.48;66.69;79011.75;5076664;28;20228;-43
2022/09/19 07:09:10;;;;;;;9.50;1.33;;;;;;;-143.48;66.37;79007.78;5076622;28;20034;-42
2022/09/19 07:11:37;;;;;;;7.68;1.42;;;;;;;-143.48;67.17;79005.78;5076563;28;20024;-44
2022/09/19 07:14:03;;;;;;;9.35;1.45;;;;;;;-143.48;66.34;78976.03;5076165;28;20056;-43
2022/09/19 07:16:29;;;;;;;8.32;1.60;;;;;;;-143.48;66.57;78964.16;5076069;28;20025;-50
2022/09/19 07:18:55;;;;;;;7.72;1.50;;;;;;;-143.48;65.98;78924.47;5076207;28;20024;-44
2022/09/19 07:21:20;;;;;;;7.22;1.30;;;;;;;-143.48;59.14;78648.78;5076442;28;20472;-43
2022/09/19 07:23:47;;;;;;;9.98;1.42;;;;;;;-143.48;54.66;78581.34;5076365;28;20025;-43
2022/09/19 07:26:13;;;;;;;8.95;1.65;;;;;;;-143.48;56.30;78644.81;5076494;28;20043;-43
2022/09/19 07:28:38;;;;;;;7.88;1.42;;;;;;;-143.48;61.02;78793.56;5076343;28;20025;-43
2022/09/19 07:31:04;;;;;;;10.48;1.80;;;;;;;-143.48;50.66;78248.16;5075940;28;20027;-45
2022/09/19 07:33:30;;;;;;;6.40;1.60;;;;;;;-143.48;43.30;77913.03;5058169;28;20032;-46
2022/09/19 07:35:56;;;;;;;5.65;1.33;;;;;;;-143.48;41.38;77909.06;5076043;28;20622;-43
2022/09/19 07:38:23;;;;;;;8.10;1.67;;;;;;;-143.48;41.82;77891.22;5057843;28;20054;-44
2022/09/19 07:40:50;;;;;;;9.98;1.90;;;;;;;-143.48;40.88;77847.59;5075869;28;20103;-42
2022/09/19 07:43:16;;;;;;;10.80;1.85;;;;;;;-143.48;40.11;77778.19;5076614;28;20065;-43
2022/09/19 07:45:51;;;;;;;7.38;1.88;;;;;;;-143.48;38.65;77752.41;5075498;28;20102;-42
2022/09/19 07:48:18;;;;;;;4.80;1.55;;;;;;;-143.48;39.31;77734.56;5075605;28;20417;-44
2022/09/19 07:50:44;;;;;;;10.32;1.83;;;;;;;-143.48;40.32;77817.84;5075419;28;20017;-43
2022/09/19 07:53:14;;;;;;;6.35;1.40;;;;;;;-143.48;39.12;77750.41;5076071;28;20032;-44
2022/09/19 07:55:43;;;;;;;8.25;1.60;;;;;;;-143.48;40.65;77897.16;5075553;28;20482;-44
2022/09/19 07:58:11;;;;;;;9.88;1.88;;;;;;;-143.48;38.92;77764.31;5075448;28;20031;-43
2022/09/19 08:00:40;;;;;;;7.40;2.05;;;;;;;-143.48;42.10;77877.31;5075530;28;20142;-43
2022/09/19 08:03:09;;;;;;;9.05;2.03;;;;;;;-143.48;42.45;77962.59;5075608;28;20017;-44
2022/09/19 08:05:38;;;;;;;12.40;1.90;;;;;;;-143.48;47.85;78369.13;5075678;28;20028;-43
2022/09/19 08:08:05;;;;;;;14.07;2.50;;;;;;;-143.48;46.76;78226.34;5075852;28;20477;-42
2022/09/19 08:10:32;;;;;;;9.20;1.73;;;;;;;-143.48;44.29;78152.97;5075867;28;20044;-43
2022/09/19 08:13:02;;;;;;;6.60;1.58;;;;;;;-143.48;52.53;78571.44;5074806;28;20124;-43
2022/09/19 08:15:28;;;;;;;6.32;1.45;;;;;;;-143.48;58.70;78769.75;5073395;28;20028;-43
2022/09/19 08:18:01;;;;;;;6.03;1.45;;;;;;;-143.48;61.97;78833.22;5074743;28;20475;-44
2022/09/19 08:20:30;;;;;;;10.10;1.70;;;;;;;-143.48;63.23;78864.97;5075075;28;20056;-44
2022/09/19 08:23:01;;;;;;;11.48;1.80;;;;;;;-143.48;64.91;78942.31;5074817;28;20051;-42
2022/09/19 08:25:28;;;;;;;9.43;1.80;;;;;;;-143.48;65.86;78922.50;5074798;28;20360;-42
2022/09/19 08:27:55;;;;;;;6.45;1.17;;;;;;;-143.48;65.05;78962.16;5075271;28;20459;-45
2022/09/19 08:30:21;;;;;;;8.18;1.42;;;;;;;-143.48;66.07;78960.19;5075053;28;20098;-43
2022/09/19 08:32:49;;;;;;;6.53;1.30;;;;;;;-143.48;65.49;78950.25;5074655;28;20024;-45
2022/09/19 08:35:19;;;;;;;10.25;1.70;;;;;;;-143.48;66.54;78934.38;5057602;28;20098;-45
2022/09/19 08:37:45;;;;;;;8.00;1.42;;;;;;;-143.48;66.77;78938.34;5074632;28;20020;-45
2022/09/19 08:40:44;;;;;;;5.40;1.25;;;;;;;-143.48;65.51;78936.38;5074463;28;20091;-43
2022/09/19 08:43:14;;;;;;;12.00;1.70;;;;;;;-143.48;65.66;78924.47;5068479;28;20452;-43
2022/09/19 08:46:07;;;;;;;8.95;1.70;;;;;;;-143.48;66.17;78912.56;5074960;28;20020;-44
2022/09/19 08:48:48;;;;;;;;;;;;;;;-143.48;65.39;78882.81;5074769;28;20043;-43
2022/09/19 08:51:20;;;;;;;9.13;1.45;;;;;;;-143.48;59.78;78654.72;5074359;28;19908;-44
2022/09/19 08:53:54;;;;;;;7.15;1.33;;;;;;;-143.48;53.18;78311.63;5074345;28;20031;-44
2022/09/19 08:56:19;;;;;;;7.40;1.50;;;;;;;-143.48;51.94;78250.16;5074156;28;20039;-44
2022/09/19 08:58:51;;;;;;;9.65;1.60;;;;;;;-143.48;52.04;78295.75;5074198;28;20020;-45
2022/09/19 09:01:18;;;;;;;10.77;1.90;;;;;;;-143.48;54.26;78448.47;5074086;28;20036;-44
2022/09/19 09:03:54;;;;;;;8.57;1.75;;;;;;;-143.48;53.23;78351.28;5074096;28;20460;-43
2022/09/19 09:06:33;;;;;;;6.78;1.15;;;;;;;-143.48;54.60;78468.28;5074657;28;20031;-44
2022/09/19 09:09:17;;;;;;;13.23;2.40;;;;;;;-143.48;54.08;78507.97;5074182;28;20021;-43
2022/09/19 09:11:55;;;;;;;8.77;1.60;;;;;;;-143.48;50.07;78275.94;5074243;28;20055;-43
2022/09/19 09:14:58;;;;;;;5.53;1.75;;;;;;;-143.48;44.36;78020.09;5073383;28;20097;-43
2022/09/19 09:17:33;;;;;;;10.85;1.60;;;;;;;-143.48;43.98;77948.72;5073511;28;20548;-43
2022/09/19 09:20:45;;;;;;;6.38;1.35;;;;;;;-143.48;43.54;77984.41;5073445;28;20037;-42
2022/09/19 09:23:26;;;;;;;9.15;1.58;;;;;;;-143.48;42.72;77905.09;4972868;28;20039;-43
2022/09/19 09:26:00;;;;;;;6.90;1.38;;;;;;;-143.48;46.20;78125.22;5071286;28;20040;-45
2022/09/19 09:28:57;;;;;;;9.23;1.67;;;;;;;-143.48;47.08;78188.66;5055903;28;20028;-44
2022/09/19 09:31:28;;;;;;;8.52;1.52;;;;;;;-143.48;45.43;78125.22;5073914;28;20083;-44
2022/09/19 09:34:36;;;;;;;16.48;2.00;;;;;;;-143.48;44.92;78121.25;5074005;28;20040;-43
2022/09/19 09:37:11;;;;;;;8.30;1.90;;;;;;;-143.48;48.77;78313.59;5026104;28;20392;-43
2022/09/19 09:40:09;;;;;;;8.48;1.45;;;;;;;-143.48;51.18;78470.28;5073566;28;20494;-45
2022/09/19 09:42:52;;;;;;;9.50;1.85;;;;;;;-143.48;51.45;78515.91;5073567;28;20070;-44
2022/09/19 09:45:27;;;;;;;9.20;1.80;;;;;;;-143.48;55.78;78638.84;5073758;28;20040;-45
2022/09/19 09:48:14;;;;;;;8.68;1.88;;;;;;;-143.48;55.48;78640.84;5073801;28;20028;-45
2022/09/19 09:50:54;;;;;;;6.32;1.45;;;;;;;-143.48;54.83;78654.72;5074017;28;20027;-44
2022/09/19 09:53:31;;;;;;;8.70;1.60;;;;;;;-143.48;51.76;78642.81;5073669;28;20021;-43
2022/09/19 09:56:22;;;;;;;5.93;1.23;;;;;;;-143.48;52.23;78628.94;5073912;28;20379;-45
2022/09/19 10:03:33;;;;;;;10.88;1.45;;;;;;;-143.48;52.77;78676.53;5073278;28;20040;-44
2022/09/19 10:04:53;;;;;;;7.68;1.70;;;;;;;-143.48;56.24;78757.88;5073647;28;20051;-44
2022/09/19 10:07:24;;;;;;;9.68;1.52;;;;;;;-143.48;56.27;78789.59;5073319;28;20029;-42
2022/09/19 10:09:55;;;;;;;6.80;1.25;;;;;;;-143.48;55.72;78777.69;5073441;28;20032;-45
2022/09/19 10:12:33;;;;;;;4.50;1.30;;;;;;;-143.48;57.58;78835.22;5073477;28;20020;-46
2022/09/19 10:15:11;;;;;;;6.50;1.40;;;;;;;-143.48;57.08;78859.03;5073342;28;20430;-46
2022/09/19 10:17:41;;;;;;;7.95;1.45;;;;;;;-143.48;58.83;78851.09;5055915;28;20056;-46
2022/09/19 10:20:16;;;;;;;7.95;1.27;;;;;;;-143.48;57.43;78813.41;5073537;28;20021;-45
2022/09/19 10:22:41;;;;;;;8.40;1.40;;;;;;;-143.48;57.21;78803.47;5073019;28;20066;-45
2022/09/19 10:25:12;;;;;;;8.02;1.27;;;;;;;-143.48;58.05;78809.44;5073048;28;20025;-44
2022/09/19 10:27:39;;;;;;;4.97;1.02;;;;;;;-143.48;56.78;78803.47;5073373;28;20017;-45
2022/09/19 10:30:25;;;;;;;6.90;1.35;;;;;;;-143.48;58.47;78819.34;5073363;28;20024;-43
2022/09/19 10:32:51;;;;;;;4.65;0.93;;;;;;;-143.48;58.18;78827.28;5073083;28;20075;-45
2022/09/19 10:35:37;;;;;;;7.72;1.40;;;;;;;-143.48;59.14;78845.13;5073235;28;20158;-45
2022/09/19 10:38:18;;;;;;;6.40;1.13;;;;;;;-143.48;57.11;78823.31;5054978;28;20036;-45
2022/09/19 10:40:58;;;;;;;5.50;0.90;;;;;;;-143.48;57.55;78849.09;5076427;28;20104;-45
2022/09/19 10:43:32;;;;;;;3.70;0.90;;;;;;;-143.48;56.90;78847.13;5077021;28;20020;-43
2022/09/19 10:46:05;;;;;;;4.68;1.08;;;;;;;-143.48;57.21;78821.34;5076822;28;20024;-42
2022/09/19 10:48:32;;;;;;;6.68;1.10;;;;;;;-143.48;56.00;78724.16;5076731;28;20085;-44
2022/09/19 10:50:59;;;;;;;8.43;1.20;;;;;;;-143.48;54.72;78621.00;5076503;28;20073;-44
2022/09/19 10:53:32;;;;;;;5.22;1.17;;;;;;;-143.48;52.24;78444.50;5076707;28;20111;-42
2022/09/19 10:56:25;;;;;;;6.30;1.35;;;;;;;-143.48;49.79;78381.03;5076545;28;20032;-44
2022/09/19 10:59:20;;;;;;;8.07;1.30;;;;;;;-143.48;47.86;78281.88;5076282;28;20032;-44
2022/09/19 11:02:10;;;;;;;6.78;1.23;;;;;;;-143.48;48.41;78377.06;5071235;28;20052;-46
2022/09/19 11:04:37;;;;;;;6.63;1.40;;;;;;;-143.48;48.63;78482.19;5076248;28;20031;-43
2022/09/19 11:07:16;;;;;;;5.35;1.20;;;;;;;-143.48;49.44;78587.28;5058304;28;20024;-43
2022/09/19 11:09:43;;;;;;;5.40;1.00;;;;;;;-143.48;51.17;78666.63;5076328;28;20052;-44
2022/09/19 11:12:15;;;;;;;8.38;1.10;;;;;;;-143.48;53.01;78793.56;5076017;28;20024;-43
2022/09/19 11:14:43;;;;;;;4.60;1.00;;;;;;;-143.48;59.20;78920.50;5057941;28;20048;-44
2022/09/19 11:17:18;;;;;;;3.65;1.08;;;;;;;-143.48;61.58;78962.16;5076001;28;20459;-45
2022/09/19 11:19:48;;;;;;;4.32;1.05;;;;;;;-143.48;63.59;78966.13;5075770;28;20024;-43
2022/09/19 11:22:20;;;;;;;4.88;1.08;;;;;;;-143.48;64.70;78954.22;5076567;28;20531;-44
2022/09/19 11:24:54;;;;;;;6.72;1.02;;;;;;;-143.48;65.44;78938.34;5075967;28;20032;-43
2022/09/19 11:27:28;;;;;;;5.78;0.98;;;;;;;-143.48;66.72;78950.25;5076307;28;20028;-43
2022/09/19 11:30:24;;;;;;;6.57;1.27;;;;;;;-143.48;67.90;78958.19;5076091;28;20413;-43
2022/09/19 11:33:09;;;;;;;4.07;1.05;;;;;;;-143.48;68.04;78946.28;5063274;28;20085;-43
2022/09/19 11:35:44;;;;;;;4.10;0.95;;;;;;;-143.48;67.93;78922.50;5075535;28;20111;-43
2022/09/19 11:38:33;;;;;;;5.95;1.23;;;;;;;-143.48;67.65;78914.56;5075906;28;20052;-45